sensor_id;sensor_type;location;lat;lon;timestamp;temperature;humidity
40676;DHT22;26359;48.750;9.314;2023-02-03T00:00:27;5.90;99.90
40676;DHT22;26359;48.750;9.314;2023-02-03T00:02:56;5.90;99.90
40676;DHT22;26359;48.750;9.314;2023-02-03T00:05:22;6.00;99.90
40676;DHT22;26359;48.750;9.314;2023-02-03T00:07:47;6.00;99.90
40676;DHT22;26359;48.750;9.314;2023-02-03T00:10:13;5.90;99.90
40676;DHT22;26359;48.750;9.314;2023-02-03T00:12:39;6.00;99.90
40676;DHT22;26359;48.750;9.314;2023-02-03T00:15:05;6.00;99.90
40676;DHT22;26359;48.750;9.314;2023-02-03T00:17:31;5.90;99.90
40676;DHT22;26359;48.750;9.314;2023-02-03T00:19:56;5.90;99.90
40676;DHT22;26359;48.750;9.314;2023-02-03T00:22:22;5.90;99.90
40676;DHT22;26359;48.750;9.314;2023-02-03T00:24:47;5.80;99.90
40676;DHT22;26359;48.750;9.314;2023-02-03T00:27:13;5.90;99.90
40676;DHT22;26359;48.750;9.314;2023-02-03T00:29:38;5.90;99.90
40676;DHT22;26359;48.750;9.314;2023-02-03T00:32:04;5.90;99.90
40676;DHT22;26359;48.750;9.314;2023-02-03T00:34:30;5.90;99.90
40676;DHT22;26359;48.750;9.314;2023-02-03T00:36:56;5.90;99.90
40676;DHT22;26359;48.750;9.314;2023-02-03T00:39:22;5.90;99.90
40676;DHT22;26359;48.750;9.314;2023-02-03T00:41:47;5.80;99.90
40676;DHT22;26359;48.750;9.314;2023-02-03T00:44:14;5.80;99.90
40676;DHT22;26359;48.750;9.314;2023-02-03T00:46:40;5.80;99.90
40676;DHT22;26359;48.750;9.314;2023-02-03T00:49:05;5.80;99.90
40676;DHT22;26359;48.750;9.314;2023-02-03T00:51:32;5.80;99.90
40676;DHT22;26359;48.750;9.314;2023-02-03T00:53:57;5.80;99.90
40676;DHT22;26359;48.750;9.314;2023-02-03T00:56:23;5.90;99.90
40676;DHT22;26359;48.750;9.314;2023-02-03T00:58:49;5.90;99.90
40676;DHT22;26359;48.750;9.314;2023-02-03T01:01:14;5.90;99.90
40676;DHT22;26359;48.750;9.314;2023-02-03T01:03:40;5.90;99.90
40676;DHT22;26359;48.750;9.314;2023-02-03T01:06:14;5.90;99.90
40676;DHT22;26359;48.750;9.314;2023-02-03T01:08:40;5.90;99.90
40676;DHT22;26359;48.750;9.314;2023-02-03T01:11:14;5.90;99.90
40676;DHT22;26359;48.750;9.314;2023-02-03T01:13:41;5.90;99.90
40676;DHT22;26359;48.750;9.314;2023-02-03T01:16:11;5.90;99.90
40676;DHT22;26359;48.750;9.314;2023-02-03T01:18:37;5.90;99.90
40676;DHT22;26359;48.750;9.314;2023-02-03T01:21:15;5.90;99.90
40676;DHT22;26359;48.750;9.314;2023-02-03T01:23:42;5.80;99.90
40676;DHT22;26359;48.750;9.314;2023-02-03T01:26:10;5.80;99.90
40676;DHT22;26359;48.750;9.314;2023-02-03T01:28:37;5.80;99.90
40676;DHT22;26359;48.750;9.314;2023-02-03T01:31:17;5.80;99.90
40676;DHT22;26359;48.750;9.314;2023-02-03T01:33:43;5.80;99.90
40676;DHT22;26359;48.750;9.314;2023-02-03T01:36:17;5.70;99.90
40676;DHT22;26359;48.750;9.314;2023-02-03T01:38:43;5.80;99.90
40676;DHT22;26359;48.750;9.314;2023-02-03T01:41:13;5.80;99.90
40676;DHT22;26359;48.750;9.314;2023-02-03T01:43:42;5.80;99.90
40676;DHT22;26359;48.750;9.314;2023-02-03T01:46:37;5.70;99.90
40676;DHT22;26359;48.750;9.314;2023-02-03T01:51:49;5.70;99.90
40676;DHT22;26359;48.750;9.314;2023-02-03T01:54:19;5.60;99.90
40676;DHT22;26359;48.750;9.314;2023-02-03T01:56:50;5.60;99.90
40676;DHT22;26359;48.750;9.314;2023-02-03T01:59:18;5.70;99.90
40676;DHT22;26359;48.750;9.314;2023-02-03T02:01:46;5.70;99.90
40676;DHT22;26359;48.750;9.314;2023-02-03T02:04:12;5.70;99.90
40676;DHT22;26359;48.750;9.314;2023-02-03T02:06:38;5.70;99.90
40676;DHT22;26359;48.750;9.314;2023-02-03T02:09:04;5.70;99.90
40676;DHT22;26359;48.750;9.314;2023-02-03T02:11:29;5.70;99.90
40676;DHT22;26359;48.750;9.314;2023-02-03T02:13:59;5.80;99.90
40676;DHT22;26359;48.750;9.314;2023-02-03T02:16:39;5.70;99.90
40676;DHT22;26359;48.750;9.314;2023-02-03T02:21:58;5.70;99.90
40676;DHT22;26359;48.750;9.314;2023-02-03T02:27:07;5.80;99.90
40676;DHT22;26359;48.750;9.314;2023-02-03T02:38:28;5.70;99.90
40676;DHT22;26359;48.750;9.314;2023-02-03T02:41:13;5.60;99.90
40676;DHT22;26359;48.750;9.314;2023-02-03T02:43:41;5.60;99.90
40676;DHT22;26359;48.750;9.314;2023-02-03T02:46:13;5.60;99.90
40676;DHT22;26359;48.750;9.314;2023-02-03T02:49:06;5.60;99.90
40676;DHT22;26359;48.750;9.314;2023-02-03T02:51:35;5.50;99.90
40676;DHT22;26359;48.750;9.314;2023-02-03T02:54:05;5.50;99.90
40676;DHT22;26359;48.750;9.314;2023-02-03T02:56:33;5.50;99.90
40676;DHT22;26359;48.750;9.314;2023-02-03T02:59:01;5.50;99.90
40676;DHT22;26359;48.750;9.314;2023-02-03T03:01:29;5.50;99.90
40676;DHT22;26359;48.750;9.314;2023-02-03T03:03:55;5.50;99.90
40676;DHT22;26359;48.750;9.314;2023-02-03T03:06:25;5.50;99.90
40676;DHT22;26359;48.750;9.314;2023-02-03T03:09:02;5.50;99.90
40676;DHT22;26359;48.750;9.314;2023-02-03T03:11:35;5.50;99.90
40676;DHT22;26359;48.750;9.314;2023-02-03T03:14:03;5.50;99.90
40676;DHT22;26359;48.750;9.314;2023-02-03T03:16:33;5.50;99.90
40676;DHT22;26359;48.750;9.314;2023-02-03T03:19:17;5.60;99.90
40676;DHT22;26359;48.750;9.314;2023-02-03T03:21:48;5.60;99.90
40676;DHT22;26359;48.750;9.314;2023-02-03T03:24:19;5.60;99.90
40676;DHT22;26359;48.750;9.314;2023-02-03T03:26:52;5.60;99.90
40676;DHT22;26359;48.750;9.314;2023-02-03T03:29:36;5.60;99.90
40676;DHT22;26359;48.750;9.314;2023-02-03T03:32:05;5.60;99.90
40676;DHT22;26359;48.750;9.314;2023-02-03T03:34:31;5.60;99.90
40676;DHT22;26359;48.750;9.314;2023-02-03T03:37:14;5.60;99.90
40676;DHT22;26359;48.750;9.314;2023-02-03T03:39:47;5.60;99.90
40676;DHT22;26359;48.750;9.314;2023-02-03T03:42:32;5.70;99.90
40676;DHT22;26359;48.750;9.314;2023-02-03T03:45:15;5.80;99.90
40676;DHT22;26359;48.750;9.314;2023-02-03T03:47:52;5.70;99.90
40676;DHT22;26359;48.750;9.314;2023-02-03T03:50:24;5.70;99.90
40676;DHT22;26359;48.750;9.314;2023-02-03T03:52:52;5.60;99.90
40676;DHT22;26359;48.750;9.314;2023-02-03T03:55:19;5.70;99.90
40676;DHT22;26359;48.750;9.314;2023-02-03T03:57:55;5.60;99.90
40676;DHT22;26359;48.750;9.314;2023-02-03T04:00:22;5.70;99.90
40676;DHT22;26359;48.750;9.314;2023-02-03T04:02:52;5.70;99.90
40676;DHT22;26359;48.750;9.314;2023-02-03T04:05:20;5.70;99.90
40676;DHT22;26359;48.750;9.314;2023-02-03T04:07:46;5.70;99.90
40676;DHT22;26359;48.750;9.314;2023-02-03T04:10:26;5.70;99.90
40676;DHT22;26359;48.750;9.314;2023-02-03T04:12:54;5.70;99.90
40676;DHT22;26359;48.750;9.314;2023-02-03T04:15:20;5.70;99.90
40676;DHT22;26359;48.750;9.314;2023-02-03T04:17:46;5.70;99.90
40676;DHT22;26359;48.750;9.314;2023-02-03T04:20:12;5.70;99.90
40676;DHT22;26359;48.750;9.314;2023-02-03T04:22:37;5.70;99.90
40676;DHT22;26359;48.750;9.314;2023-02-03T04:25:03;5.70;99.90
40676;DHT22;26359;48.750;9.314;2023-02-03T04:27:29;5.70;99.90
40676;DHT22;26359;48.750;9.314;2023-02-03T04:29:54;5.70;99.90
40676;DHT22;26359;48.750;9.314;2023-02-03T04:32:20;5.70;99.90
40676;DHT22;26359;48.750;9.314;2023-02-03T04:34:45;5.60;99.90
40676;DHT22;26359;48.750;9.314;2023-02-03T04:37:11;5.60;99.90
40676;DHT22;26359;48.750;9.314;2023-02-03T04:39:36;5.60;99.90
40676;DHT22;26359;48.750;9.314;2023-02-03T04:42:02;5.50;99.90
40676;DHT22;26359;48.750;9.314;2023-02-03T04:44:28;5.50;99.90
40676;DHT22;26359;48.750;9.314;2023-02-03T04:46:53;5.50;99.90
40676;DHT22;26359;48.750;9.314;2023-02-03T04:49:19;5.50;99.90
40676;DHT22;26359;48.750;9.314;2023-02-03T04:51:44;5.50;99.90
40676;DHT22;26359;48.750;9.314;2023-02-03T04:54:12;5.50;99.90
40676;DHT22;26359;48.750;9.314;2023-02-03T04:56:37;5.50;99.90
40676;DHT22;26359;48.750;9.314;2023-02-03T04:59:03;5.50;99.90
40676;DHT22;26359;48.750;9.314;2023-02-03T05:01:29;5.50;99.90
40676;DHT22;26359;48.750;9.314;2023-02-03T05:03:54;5.40;99.90
40676;DHT22;26359;48.750;9.314;2023-02-03T05:06:24;5.40;99.90
40676;DHT22;26359;48.750;9.314;2023-02-03T05:08:52;5.30;99.90
40676;DHT22;26359;48.750;9.314;2023-02-03T05:11:17;5.30;99.90
40676;DHT22;26359;48.750;9.314;2023-02-03T05:13:43;5.30;99.90
40676;DHT22;26359;48.750;9.314;2023-02-03T05:16:09;5.30;99.90
40676;DHT22;26359;48.750;9.314;2023-02-03T05:18:34;5.30;99.90
40676;DHT22;26359;48.750;9.314;2023-02-03T05:21:00;5.30;99.90
40676;DHT22;26359;48.750;9.314;2023-02-03T05:23:25;5.30;99.90
40676;DHT22;26359;48.750;9.314;2023-02-03T05:25:51;5.30;99.90
40676;DHT22;26359;48.750;9.314;2023-02-03T05:28:16;5.30;99.90
40676;DHT22;26359;48.750;9.314;2023-02-03T05:30:42;5.30;99.90
40676;DHT22;26359;48.750;9.314;2023-02-03T05:33:07;5.30;99.90
40676;DHT22;26359;48.750;9.314;2023-02-03T05:35:33;5.30;99.90
40676;DHT22;26359;48.750;9.314;2023-02-03T05:37:59;5.30;99.90
40676;DHT22;26359;48.750;9.314;2023-02-03T05:40:25;5.30;99.90
40676;DHT22;26359;48.750;9.314;2023-02-03T05:43:09;5.30;99.90
40676;DHT22;26359;48.750;9.314;2023-02-03T05:45:34;5.30;99.90
40676;DHT22;26359;48.750;9.314;2023-02-03T05:48:00;5.30;99.90
40676;DHT22;26359;48.750;9.314;2023-02-03T05:50:27;5.30;99.90
40676;DHT22;26359;48.750;9.314;2023-02-03T05:52:58;5.30;99.90
40676;DHT22;26359;48.750;9.314;2023-02-03T05:55:23;5.30;99.90
40676;DHT22;26359;48.750;9.314;2023-02-03T05:57:49;5.30;99.90
40676;DHT22;26359;48.750;9.314;2023-02-03T06:00:15;5.30;99.90
40676;DHT22;26359;48.750;9.314;2023-02-03T06:02:40;5.30;99.90
40676;DHT22;26359;48.750;9.314;2023-02-03T06:05:06;5.30;99.90
40676;DHT22;26359;48.750;9.314;2023-02-03T06:07:32;5.30;99.90
40676;DHT22;26359;48.750;9.314;2023-02-03T06:09:57;5.30;99.90
40676;DHT22;26359;48.750;9.314;2023-02-03T06:12:23;5.30;99.90
40676;DHT22;26359;48.750;9.314;2023-02-03T06:14:48;5.40;99.90
40676;DHT22;26359;48.750;9.314;2023-02-03T06:17:14;5.40;99.90
40676;DHT22;26359;48.750;9.314;2023-02-03T06:19:39;5.30;99.90
40676;DHT22;26359;48.750;9.314;2023-02-03T06:22:05;5.30;99.90
40676;DHT22;26359;48.750;9.314;2023-02-03T06:24:30;5.30;99.90
40676;DHT22;26359;48.750;9.314;2023-02-03T06:26:56;5.30;99.90
40676;DHT22;26359;48.750;9.314;2023-02-03T06:29:21;5.30;99.90
40676;DHT22;26359;48.750;9.314;2023-02-03T06:31:47;5.40;99.90
40676;DHT22;26359;48.750;9.314;2023-02-03T06:34:12;5.40;99.90
40676;DHT22;26359;48.750;9.314;2023-02-03T06:36:38;5.40;99.90
40676;DHT22;26359;48.750;9.314;2023-02-03T06:39:03;5.40;99.90
40676;DHT22;26359;48.750;9.314;2023-02-03T06:41:29;5.40;99.90
40676;DHT22;26359;48.750;9.314;2023-02-03T06:43:55;5.50;99.90
40676;DHT22;26359;48.750;9.314;2023-02-03T06:46:21;5.50;99.90
40676;DHT22;26359;48.750;9.314;2023-02-03T06:48:46;5.50;99.90
40676;DHT22;26359;48.750;9.314;2023-02-03T06:51:12;5.60;99.90
40676;DHT22;26359;48.750;9.314;2023-02-03T06:53:37;5.60;99.90
40676;DHT22;26359;48.750;9.314;2023-02-03T06:56:03;5.60;99.90
40676;DHT22;26359;48.750;9.314;2023-02-03T06:58:28;5.50;99.90
40676;DHT22;26359;48.750;9.314;2023-02-03T07:00:55;5.40;99.90
40676;DHT22;26359;48.750;9.314;2023-02-03T07:03:20;5.40;99.90
40676;DHT22;26359;48.750;9.314;2023-02-03T07:05:46;5.40;99.90
40676;DHT22;26359;48.750;9.314;2023-02-03T07:08:11;5.40;99.90
40676;DHT22;26359;48.750;9.314;2023-02-03T07:10:37;5.30;99.90
40676;DHT22;26359;48.750;9.314;2023-02-03T07:13:04;5.40;99.90
40676;DHT22;26359;48.750;9.314;2023-02-03T07:15:30;5.40;99.90
40676;DHT22;26359;48.750;9.314;2023-02-03T07:17:56;5.40;99.90
40676;DHT22;26359;48.750;9.314;2023-02-03T07:20:22;5.30;99.90
40676;DHT22;26359;48.750;9.314;2023-02-03T07:22:56;5.30;99.90
40676;DHT22;26359;48.750;9.314;2023-02-03T07:25:22;5.30;99.90
40676;DHT22;26359;48.750;9.314;2023-02-03T07:27:48;5.30;99.90
40676;DHT22;26359;48.750;9.314;2023-02-03T07:30:14;5.40;99.90
40676;DHT22;26359;48.750;9.314;2023-02-03T07:32:40;5.40;99.90
40676;DHT22;26359;48.750;9.314;2023-02-03T07:35:05;5.30;99.90
40676;DHT22;26359;48.750;9.314;2023-02-03T07:37:32;5.30;99.90
40676;DHT22;26359;48.750;9.314;2023-02-03T07:39:58;5.40;99.90
40676;DHT22;26359;48.750;9.314;2023-02-03T07:42:23;5.40;99.90
40676;DHT22;26359;48.750;9.314;2023-02-03T07:44:49;5.30;99.90
40676;DHT22;26359;48.750;9.314;2023-02-03T07:47:14;5.30;99.90
40676;DHT22;26359;48.750;9.314;2023-02-03T07:49:40;5.30;99.90
40676;DHT22;26359;48.750;9.314;2023-02-03T07:52:07;5.20;99.90
40676;DHT22;26359;48.750;9.314;2023-02-03T07:54:32;5.20;99.90
40676;DHT22;26359;48.750;9.314;2023-02-03T07:56:58;5.30;99.90
40676;DHT22;26359;48.750;9.314;2023-02-03T07:59:23;5.20;99.90
40676;DHT22;26359;48.750;9.314;2023-02-03T08:01:49;5.20;99.90
40676;DHT22;26359;48.750;9.314;2023-02-03T08:04:14;5.20;99.90
40676;DHT22;26359;48.750;9.314;2023-02-03T08:06:42;5.20;99.90
40676;DHT22;26359;48.750;9.314;2023-02-03T08:09:08;5.30;99.90
40676;DHT22;26359;48.750;9.314;2023-02-03T08:11:33;5.20;99.90
40676;DHT22;26359;48.750;9.314;2023-02-03T08:13:59;5.30;99.90
40676;DHT22;26359;48.750;9.314;2023-02-03T08:16:24;5.30;99.90
40676;DHT22;26359;48.750;9.314;2023-02-03T08:18:51;5.40;99.90
40676;DHT22;26359;48.750;9.314;2023-02-03T08:21:16;5.40;99.90
40676;DHT22;26359;48.750;9.314;2023-02-03T08:23:42;5.40;99.90
40676;DHT22;26359;48.750;9.314;2023-02-03T08:26:07;5.50;99.90
40676;DHT22;26359;48.750;9.314;2023-02-03T08:28:33;5.50;99.90
40676;DHT22;26359;48.750;9.314;2023-02-03T08:30:58;5.50;99.90
40676;DHT22;26359;48.750;9.314;2023-02-03T08:33:24;5.50;99.90
40676;DHT22;26359;48.750;9.314;2023-02-03T08:35:49;5.40;99.90
40676;DHT22;26359;48.750;9.314;2023-02-03T08:38:15;5.40;99.90
40676;DHT22;26359;48.750;9.314;2023-02-03T08:40:41;5.40;99.90
40676;DHT22;26359;48.750;9.314;2023-02-03T08:43:07;5.50;99.90
40676;DHT22;26359;48.750;9.314;2023-02-03T08:45:32;5.40;99.90
40676;DHT22;26359;48.750;9.314;2023-02-03T08:47:58;5.40;99.90
40676;DHT22;26359;48.750;9.314;2023-02-03T08:50:23;5.50;99.90
40676;DHT22;26359;48.750;9.314;2023-02-03T08:52:49;5.50;99.90
40676;DHT22;26359;48.750;9.314;2023-02-03T08:55:14;5.50;99.90
40676;DHT22;26359;48.750;9.314;2023-02-03T08:57:40;5.60;99.90
40676;DHT22;26359;48.750;9.314;2023-02-03T09:00:08;5.60;99.90
40676;DHT22;26359;48.750;9.314;2023-02-03T09:02:34;5.60;99.90
40676;DHT22;26359;48.750;9.314;2023-02-03T09:04:59;5.60;99.90
40676;DHT22;26359;48.750;9.314;2023-02-03T09:07:25;5.70;99.90
40676;DHT22;26359;48.750;9.314;2023-02-03T09:09:51;5.80;99.90
40676;DHT22;26359;48.750;9.314;2023-02-03T09:12:16;5.80;99.90
40676;DHT22;26359;48.750;9.314;2023-02-03T09:14:42;5.70;99.90
40676;DHT22;26359;48.750;9.314;2023-02-03T09:17:10;5.80;99.90
40676;DHT22;26359;48.750;9.314;2023-02-03T09:19:35;5.90;99.90
40676;DHT22;26359;48.750;9.314;2023-02-03T09:22:01;5.90;99.90
40676;DHT22;26359;48.750;9.314;2023-02-03T09:24:27;5.90;99.90
40676;DHT22;26359;48.750;9.314;2023-02-03T09:26:52;5.90;99.90
40676;DHT22;26359;48.750;9.314;2023-02-03T09:29:18;6.00;99.90
40676;DHT22;26359;48.750;9.314;2023-02-03T09:31:44;6.20;99.90
40676;DHT22;26359;48.750;9.314;2023-02-03T09:34:12;6.30;99.90
40676;DHT22;26359;48.750;9.314;2023-02-03T09:36:37;6.30;99.90
40676;DHT22;26359;48.750;9.314;2023-02-03T09:39:03;6.40;99.90
40676;DHT22;26359;48.750;9.314;2023-02-03T09:44:40;6.60;99.90
40676;DHT22;26359;48.750;9.314;2023-02-03T09:47:17;6.60;99.90
40676;DHT22;26359;48.750;9.314;2023-02-03T09:49:50;6.80;99.90
40676;DHT22;26359;48.750;9.314;2023-02-03T09:52:21;6.80;99.90
40676;DHT22;26359;48.750;9.314;2023-02-03T09:55:00;6.80;99.90
40676;DHT22;26359;48.750;9.314;2023-02-03T09:57:29;6.80;99.90
40676;DHT22;26359;48.750;9.314;2023-02-03T09:59:57;6.80;99.90
40676;DHT22;26359;48.750;9.314;2023-02-03T10:10:38;6.70;99.90
40676;DHT22;26359;48.750;9.314;2023-02-03T10:16:22;6.90;99.90
40676;DHT22;26359;48.750;9.314;2023-02-03T10:18:53;7.00;99.90
40676;DHT22;26359;48.750;9.314;2023-02-03T10:21:39;7.30;99.90
40676;DHT22;26359;48.750;9.314;2023-02-03T10:24:12;7.20;99.90
40676;DHT22;26359;48.750;9.314;2023-02-03T10:26:40;7.10;99.90
40676;DHT22;26359;48.750;9.314;2023-02-03T10:29:19;7.10;99.90
40676;DHT22;26359;48.750;9.314;2023-02-03T10:31:45;7.00;99.90
40676;DHT22;26359;48.750;9.314;2023-02-03T10:34:14;6.90;99.90
40676;DHT22;26359;48.750;9.314;2023-02-03T10:36:56;6.80;99.90
40676;DHT22;26359;48.750;9.314;2023-02-03T10:39:41;6.80;99.90
40676;DHT22;26359;48.750;9.314;2023-02-03T10:42:09;6.80;99.90
40676;DHT22;26359;48.750;9.314;2023-02-03T10:44:56;6.70;99.90
40676;DHT22;26359;48.750;9.314;2023-02-03T10:47:36;6.80;99.90
40676;DHT22;26359;48.750;9.314;2023-02-03T10:50:18;6.70;99.90
40676;DHT22;26359;48.750;9.314;2023-02-03T10:52:43;6.70;99.90
40676;DHT22;26359;48.750;9.314;2023-02-03T10:57:50;6.90;99.90
40676;DHT22;26359;48.750;9.314;2023-02-03T11:00:23;6.90;99.90
40676;DHT22;26359;48.750;9.314;2023-02-03T11:03:07;6.90;99.90
40676;DHT22;26359;48.750;9.314;2023-02-03T11:05:33;7.10;99.90
40676;DHT22;26359;48.750;9.314;2023-02-03T11:07:59;7.30;99.90
40676;DHT22;26359;48.750;9.314;2023-02-03T11:10:32;7.40;99.90
40676;DHT22;26359;48.750;9.314;2023-02-03T11:15:42;7.40;99.90
40676;DHT22;26359;48.750;9.314;2023-02-03T11:20:57;7.30;99.90
40676;DHT22;26359;48.750;9.314;2023-02-03T11:23:23;7.20;99.90
40676;DHT22;26359;48.750;9.314;2023-02-03T11:25:48;7.20;99.90
40676;DHT22;26359;48.750;9.314;2023-02-03T11:28:14;7.10;99.90
40676;DHT22;26359;48.750;9.314;2023-02-03T11:30:41;7.00;99.90
40676;DHT22;26359;48.750;9.314;2023-02-03T11:33:33;7.00;99.90
40676;DHT22;26359;48.750;9.314;2023-02-03T11:36:01;6.90;99.90
40676;DHT22;26359;48.750;9.314;2023-02-03T11:38:32;6.90;99.90
40676;DHT22;26359;48.750;9.314;2023-02-03T11:41:01;6.90;99.90
40676;DHT22;26359;48.750;9.314;2023-02-03T11:43:28;7.00;99.90
40676;DHT22;26359;48.750;9.314;2023-02-03T11:45:59;7.00;99.90
40676;DHT22;26359;48.750;9.314;2023-02-03T11:48:34;7.10;99.90
40676;DHT22;26359;48.750;9.314;2023-02-03T11:53:43;7.20;99.90
40676;DHT22;26359;48.750;9.314;2023-02-03T12:07:18;7.30;99.90
40676;DHT22;26359;48.750;9.314;2023-02-03T12:12:48;7.30;99.90
40676;DHT22;26359;48.750;9.314;2023-02-03T12:18:07;7.30;99.90
40676;DHT22;26359;48.750;9.314;2023-02-03T12:20:47;7.30;99.90
40676;DHT22;26359;48.750;9.314;2023-02-03T12:28:45;7.40;99.90
40676;DHT22;26359;48.750;9.314;2023-02-03T12:31:38;7.40;99.90
40676;DHT22;26359;48.750;9.314;2023-02-03T12:34:21;7.40;99.90
40676;DHT22;26359;48.750;9.314;2023-02-03T12:39:20;7.40;99.90
40676;DHT22;26359;48.750;9.314;2023-02-03T12:41:54;7.40;99.90
40676;DHT22;26359;48.750;9.314;2023-02-03T12:44:34;7.40;99.90
40676;DHT22;26359;48.750;9.314;2023-02-03T12:49:49;7.30;99.90
40676;DHT22;26359;48.750;9.314;2023-02-03T12:52:31;7.30;99.90
40676;DHT22;26359;48.750;9.314;2023-02-03T12:57:59;7.30;99.90
40676;DHT22;26359;48.750;9.314;2023-02-03T13:00:44;7.40;99.90
40676;DHT22;26359;48.750;9.314;2023-02-03T13:03:32;7.40;99.90
40676;DHT22;26359;48.750;9.314;2023-02-03T13:06:15;7.30;99.90
40676;DHT22;26359;48.750;9.314;2023-02-03T13:08:49;7.30;99.90
40676;DHT22;26359;48.750;9.314;2023-02-03T13:13:54;7.30;99.90
40676;DHT22;26359;48.750;9.314;2023-02-03T13:16:25;7.40;99.90
40676;DHT22;26359;48.750;9.314;2023-02-03T13:18:57;7.30;99.90
40676;DHT22;26359;48.750;9.314;2023-02-03T13:21:24;7.40;99.90
40676;DHT22;26359;48.750;9.314;2023-02-03T13:23:49;7.40;99.90
40676;DHT22;26359;48.750;9.314;2023-02-03T13:32:15;7.40;99.90
40676;DHT22;26359;48.750;9.314;2023-02-03T13:38:00;7.50;99.90
40676;DHT22;26359;48.750;9.314;2023-02-03T13:43:12;7.50;99.90
40676;DHT22;26359;48.750;9.314;2023-02-03T13:45:47;7.50;99.90
40676;DHT22;26359;48.750;9.314;2023-02-03T13:48:19;7.50;99.90
40676;DHT22;26359;48.750;9.314;2023-02-03T13:50:49;7.50;99.90
40676;DHT22;26359;48.750;9.314;2023-02-03T13:53:20;7.50;99.90
40676;DHT22;26359;48.750;9.314;2023-02-03T13:56:02;7.50;99.90
40676;DHT22;26359;48.750;9.314;2023-02-03T13:58:31;7.50;99.90
40676;DHT22;26359;48.750;9.314;2023-02-03T14:05:53;7.50;99.90
40676;DHT22;26359;48.750;9.314;2023-02-03T14:16:44;7.60;99.90
40676;DHT22;26359;48.750;9.314;2023-02-03T14:21:59;7.70;99.90
40676;DHT22;26359;48.750;9.314;2023-02-03T14:24:53;7.70;99.90
40676;DHT22;26359;48.750;9.314;2023-02-03T14:27:22;7.70;99.90
40676;DHT22;26359;48.750;9.314;2023-02-03T14:30:13;7.80;99.90
40676;DHT22;26359;48.750;9.314;2023-02-03T14:32:53;7.80;99.90
40676;DHT22;26359;48.750;9.314;2023-02-03T14:35:32;7.80;99.90
40676;DHT22;26359;48.750;9.314;2023-02-03T14:38:11;7.80;99.90
40676;DHT22;26359;48.750;9.314;2023-02-03T14:46:20;7.80;99.90
40676;DHT22;26359;48.750;9.314;2023-02-03T14:54:40;7.70;99.90
40676;DHT22;26359;48.750;9.314;2023-02-03T15:11:23;7.60;99.90
40676;DHT22;26359;48.750;9.314;2023-02-03T15:13:49;7.60;99.90
40676;DHT22;26359;48.750;9.314;2023-02-03T15:16:18;7.60;99.90
40676;DHT22;26359;48.750;9.314;2023-02-03T15:18:44;7.60;99.90
40676;DHT22;26359;48.750;9.314;2023-02-03T15:21:18;7.60;99.90
40676;DHT22;26359;48.750;9.314;2023-02-03T15:23:45;7.50;99.90
40676;DHT22;26359;48.750;9.314;2023-02-03T15:26:22;7.50;99.90
40676;DHT22;26359;48.750;9.314;2023-02-03T15:29:00;7.40;99.90
40676;DHT22;26359;48.750;9.314;2023-02-03T15:31:40;7.40;99.90
40676;DHT22;26359;48.750;9.314;2023-02-03T15:34:29;7.40;99.90
40676;DHT22;26359;48.750;9.314;2023-02-03T15:37:00;7.40;99.90
40676;DHT22;26359;48.750;9.314;2023-02-03T15:45:16;7.30;99.90
40676;DHT22;26359;48.750;9.314;2023-02-03T15:47:52;7.30;99.90
40676;DHT22;26359;48.750;9.314;2023-02-03T15:50:36;7.30;99.90
40676;DHT22;26359;48.750;9.314;2023-02-03T15:53:30;7.30;99.90
40676;DHT22;26359;48.750;9.314;2023-02-03T15:56:00;7.30;99.90
40676;DHT22;26359;48.750;9.314;2023-02-03T15:58:31;7.30;99.90
40676;DHT22;26359;48.750;9.314;2023-02-03T16:01:02;7.30;99.90
40676;DHT22;26359;48.750;9.314;2023-02-03T16:06:33;7.30;99.90
40676;DHT22;26359;48.750;9.314;2023-02-03T16:09:32;7.30;99.90
40676;DHT22;26359;48.750;9.314;2023-02-03T16:12:17;7.30;99.90
40676;DHT22;26359;48.750;9.314;2023-02-03T16:14:46;7.20;99.90
40676;DHT22;26359;48.750;9.314;2023-02-03T16:17:32;7.30;99.90
40676;DHT22;26359;48.750;9.314;2023-02-03T16:22:45;7.30;99.90
40676;DHT22;26359;48.750;9.314;2023-02-03T16:27:53;7.20;99.90
40676;DHT22;26359;48.750;9.314;2023-02-03T16:30:37;7.20;99.90
40676;DHT22;26359;48.750;9.314;2023-02-03T16:33:22;7.20;99.90
40676;DHT22;26359;48.750;9.314;2023-02-03T16:36:12;7.00;99.90
40676;DHT22;26359;48.750;9.314;2023-02-03T16:38:57;7.00;99.90
40676;DHT22;26359;48.750;9.314;2023-02-03T16:41:44;7.00;99.90
40676;DHT22;26359;48.750;9.314;2023-02-03T16:44:28;7.00;99.90
40676;DHT22;26359;48.750;9.314;2023-02-03T16:47:26;7.00;99.90
40676;DHT22;26359;48.750;9.314;2023-02-03T16:50:22;7.00;99.90
40676;DHT22;26359;48.750;9.314;2023-02-03T16:53:18;7.00;99.90
40676;DHT22;26359;48.750;9.314;2023-02-03T16:55:44;7.00;99.90
40676;DHT22;26359;48.750;9.314;2023-02-03T16:58:10;7.00;99.90
40676;DHT22;26359;48.750;9.314;2023-02-03T17:00:38;7.00;99.90
40676;DHT22;26359;48.750;9.314;2023-02-03T17:03:06;6.90;99.90
40676;DHT22;26359;48.750;9.314;2023-02-03T17:05:36;6.90;99.90
40676;DHT22;26359;48.750;9.314;2023-02-03T17:08:03;6.90;99.90
40676;DHT22;26359;48.750;9.314;2023-02-03T17:10:28;7.00;99.90
40676;DHT22;26359;48.750;9.314;2023-02-03T17:12:54;6.90;99.90
40676;DHT22;26359;48.750;9.314;2023-02-03T17:15:19;7.00;99.90
40676;DHT22;26359;48.750;9.314;2023-02-03T17:17:45;6.90;99.90
40676;DHT22;26359;48.750;9.314;2023-02-03T17:20:10;6.90;99.90
40676;DHT22;26359;48.750;9.314;2023-02-03T17:22:36;6.90;99.90
40676;DHT22;26359;48.750;9.314;2023-02-03T17:25:01;6.90;99.90
40676;DHT22;26359;48.750;9.314;2023-02-03T17:27:27;7.00;99.90
40676;DHT22;26359;48.750;9.314;2023-02-03T17:29:53;6.90;99.90
40676;DHT22;26359;48.750;9.314;2023-02-03T17:32:19;7.00;99.90
40676;DHT22;26359;48.750;9.314;2023-02-03T17:34:45;6.90;99.90
40676;DHT22;26359;48.750;9.314;2023-02-03T17:37:10;7.00;99.90
40676;DHT22;26359;48.750;9.314;2023-02-03T17:39:36;7.00;99.90
40676;DHT22;26359;48.750;9.314;2023-02-03T17:42:01;7.00;99.90
40676;DHT22;26359;48.750;9.314;2023-02-03T17:44:27;7.00;99.90
40676;DHT22;26359;48.750;9.314;2023-02-03T17:46:52;7.00;99.90
40676;DHT22;26359;48.750;9.314;2023-02-03T17:49:18;7.00;99.90
40676;DHT22;26359;48.750;9.314;2023-02-03T17:51:43;7.00;99.90
40676;DHT22;26359;48.750;9.314;2023-02-03T17:54:10;7.00;99.90
40676;DHT22;26359;48.750;9.314;2023-02-03T17:56:36;6.90;99.90
40676;DHT22;26359;48.750;9.314;2023-02-03T17:59:03;7.00;99.90
40676;DHT22;26359;48.750;9.314;2023-02-03T18:01:29;7.00;99.90
40676;DHT22;26359;48.750;9.314;2023-02-03T18:04:00;7.00;99.90
40676;DHT22;26359;48.750;9.314;2023-02-03T18:06:28;7.00;99.90
40676;DHT22;26359;48.750;9.314;2023-02-03T18:08:54;7.00;99.90
40676;DHT22;26359;48.750;9.314;2023-02-03T18:11:25;7.00;99.90
40676;DHT22;26359;48.750;9.314;2023-02-03T18:13:51;7.00;99.90
40676;DHT22;26359;48.750;9.314;2023-02-03T18:16:20;7.00;99.90
40676;DHT22;26359;48.750;9.314;2023-02-03T18:18:47;7.00;99.90
40676;DHT22;26359;48.750;9.314;2023-02-03T18:21:14;6.90;99.90
40676;DHT22;26359;48.750;9.314;2023-02-03T18:23:40;6.90;99.90